createdAt,value
2022-09-27T04:10:13.137Z,99000.25
2022-09-27T04:13:17.257Z,99002.19
2022-09-27T04:16:20.922Z,99007.50
2022-09-27T04:19:24.902Z,99003.06
2022-09-27T04:22:29.068Z,99008.97
2022-09-27T04:25:35.237Z,99004.91
2022-09-27T04:28:40.149Z,98997.38
2022-09-27T04:31:44.475Z,98991.72
2022-09-27T04:35:06.256Z,98990.25
2022-09-27T04:38:09.075Z,98987.59
2022-09-27T04:41:11.862Z,98980.25
2022-09-27T04:44:14.623Z,98993.59
2022-09-27T04:47:18.491Z,98984.59
2022-09-27T04:50:21.207Z,98985.13
2022-09-27T04:53:34.746Z,98982.34
2022-09-27T04:56:37.501Z,98975.72
2022-09-27T04:59:42.610Z,98980.41
2022-09-27T05:02:48.406Z,98988.63
2022-09-27T05:05:52.613Z,98983.53
2022-09-27T05:08:55.462Z,98975.56
2022-09-27T05:11:58.696Z,98964.41
2022-09-27T05:15:03.819Z,98969.25
2022-09-27T05:18:08.621Z,98960.84
2022-09-27T05:21:15.425Z,98967.38
2022-09-27T05:24:18.937Z,98974.78
2022-09-27T05:27:21.742Z,98976.88
2022-09-27T05:30:27.833Z,98971.94
2022-09-27T05:33:31.514Z,98969.91
2022-09-27T05:36:39.665Z,98960.84
2022-09-27T05:39:42.480Z,98956.84
2022-09-27T05:42:44.952Z,98946.12
2022-09-27T05:45:48.045Z,98940.06
2022-09-27T05:48:50.813Z,98927.75
2022-09-27T05:51:53.541Z,98932.09
2022-09-27T05:54:56.268Z,98935.84
2022-09-27T05:58:05.399Z,98928.03
2022-09-27T06:01:10.018Z,98928.00
2022-09-27T06:04:22.635Z,98934.53
2022-09-27T06:07:25.727Z,98944.31
2022-09-27T06:10:34.608Z,98953.72
2022-09-27T06:21:16.397Z,98963.41
2022-09-27T06:24:20.342Z,98956.19
2022-09-27T06:27:23.191Z,98954.00
2022-09-27T06:30:30.244Z,98951.72
2022-09-27T06:33:33.744Z,98954.75
2022-09-27T06:36:37.037Z,98950.53
2022-09-27T06:39:39.659Z,98951.13
2022-09-27T06:42:43.219Z,98947.72
2022-09-27T06:45:46.216Z,98952.34
2022-09-27T06:48:56.903Z,98944.28
2022-09-27T06:52:06.182Z,98942.22
2022-09-27T06:55:09.473Z,98938.59
2022-09-27T06:58:30.758Z,98937.38
2022-09-27T07:01:36.388Z,98933.63
2022-09-27T08:28:06.679Z,98925.28
2022-09-27T08:31:09.896Z,98931.97
2022-09-27T08:57:15.279Z,98906.44
2022-09-27T09:00:18.753Z,98911.50
2022-09-27T09:03:26.865Z,98920.75
2022-09-27T09:06:59.940Z,98919.34
2022-09-27T09:10:52.284Z,98921.75
2022-09-27T09:13:58.015Z,98924.25
2022-09-27T09:17:40.720Z,98916.25
2022-09-27T09:20:55.758Z,98910.87
2022-09-27T09:24:32.436Z,98900.31
2022-09-27T09:28:07.938Z,98898.50
2022-09-27T09:31:28.997Z,98891.38
2022-09-27T09:34:40.199Z,98884.91
2022-09-27T09:37:53.758Z,98870.50
2022-09-27T09:41:17.130Z,98861.66
2022-09-27T09:44:35.880Z,98862.62
2022-09-27T09:47:54.655Z,98859.63
2022-09-27T09:51:01.427Z,98870.88
2022-09-27T09:54:29.363Z,98869.12
2022-09-27T09:57:51.384Z,98870.97
2022-09-27T10:01:00.502Z,98862.97
2022-09-27T10:04:20.318Z,98862.03
2022-09-27T10:07:25.064Z,98859.66
2022-09-27T10:10:28.769Z,98849.78
2022-09-27T10:13:35.893Z,98850.34
2022-09-27T10:16:42.544Z,98850.59
2022-09-27T10:19:52.643Z,98848.59
2022-09-27T10:23:00.965Z,98851.34
2022-09-27T10:26:08.962Z,98847.19
2022-09-27T10:29:32.570Z,98838.44
2022-09-27T10:32:39.034Z,98837.59
2022-09-27T10:35:45.254Z,98832.31
2022-09-27T10:38:54.792Z,98839.06
2022-09-27T10:41:58.884Z,98838.91
2022-09-27T10:49:18.619Z,98829.09
2022-09-27T12:09:11.399Z,98735.00
2022-09-27T12:12:31.878Z,98730.66
2022-09-27T12:15:39.804Z,98728.00
2022-09-27T12:18:47.978Z,98712.66
2022-09-27T12:22:01.469Z,98709.38
2022-09-27T12:25:06.098Z,98710.59
2022-09-27T12:28:37.079Z,98711.94
2022-09-27T12:32:05.857Z,98717.59
2022-09-27T12:35:29.017Z,98699.63
2022-09-27T12:39:01.846Z,98695.28
2022-09-27T12:46:22.969Z,98701.34
2022-09-27T12:49:52.255Z,98690.47
2022-09-27T12:53:04.553Z,98685.66
2022-09-27T12:56:13.386Z,98682.66
2022-09-27T12:59:41.815Z,98681.13
2022-09-27T13:10:35.647Z,98686.00
2022-09-27T13:13:40.652Z,98678.03
2022-09-27T13:16:45.440Z,98670.03
2022-09-27T13:19:48.751Z,98668.00
2022-09-27T13:22:51.878Z,98663.50
2022-09-27T13:25:58.043Z,98665.69
2022-09-27T13:29:03.589Z,98666.16
2022-09-27T13:32:21.022Z,98667.09
2022-09-27T13:35:26.949Z,98664.19
2022-09-27T13:38:31.253Z,98656.56
2022-09-27T13:41:46.648Z,98656.38
2022-09-27T13:44:54.714Z,98652.59
2022-09-27T13:47:59.130Z,98650.06
2022-09-27T13:51:13.422Z,98651.06
2022-09-27T13:54:34.247Z,98638.34
2022-09-27T13:57:48.768Z,98632.47
2022-09-27T14:00:56.079Z,98632.19
2022-09-27T14:04:17.318Z,98633.09
2022-09-27T14:07:42.468Z,98627.91
2022-09-27T14:10:46.809Z,98634.16
2022-09-27T14:13:50.165Z,98648.22
2022-09-27T14:16:54.385Z,98658.97
2022-09-27T14:19:57.567Z,98689.16
2022-09-27T14:23:02.474Z,98705.19
2022-09-27T14:26:05.821Z,98702.38
2022-09-27T14:29:21.185Z,98717.59
2022-09-27T14:32:27.022Z,98731.13
2022-09-27T14:35:50.469Z,98719.56
2022-09-27T14:38:53.337Z,98711.25
2022-09-27T14:41:56.926Z,98718.72
2022-09-27T14:45:04.245Z,98718.13
2022-09-27T14:48:22.572Z,98723.19
2022-09-27T14:51:31.361Z,98727.59
2022-09-27T14:54:34.197Z,98721.81
2022-09-27T14:57:37.255Z,98723.66
2022-09-27T15:00:47.504Z,98728.50
2022-09-27T15:03:50.787Z,98731.69
2022-09-27T15:06:55.661Z,98731.28
2022-09-27T15:09:59.035Z,98740.97
2022-09-27T15:13:05.206Z,98726.44
2022-09-27T15:16:20.207Z,98734.69
2022-09-27T15:19:29.139Z,98736.44
